Alpha, Kentucky
Current Conditions -  °F | °C
As of 9:56 AM on Sunday 25 Jan 2015 (Local Time) from KEKQ Reporting Station
Clear Clear  
Wind Chill: 39°   Ceiling: Unl
Heat Index: 45°   Visibility: 10mi
Dew Point: 34°   Wind: 12mph
Humidity: 65%   Direction: 150°SSE
Pressure: 29.8"   Gusts: NA
Location:  36.77°N, 85.01°W
Report Text: KEKQ 251556Z AUTO 15010KT 10SM CLR 07/01 A2980 RMK AO2 T00720011 SLP100
Loading
Personal Weather Stations






























Interactive Weather Map New forecast layout! Learn more

10-Day Weather Forecast

Advertisements
Track Severe Weather on mobile